sensor_id;sensor_type;location;lat;lon;timestamp;pressure;altitude;pressure_sealevel;temperature;humidity
9421;BME280;4749;51.398;5.466;2024-03-07T00:00:27;102338.13;;;5.63;100.00
9421;BME280;4749;51.398;5.466;2024-03-07T00:02:54;102336.16;;;5.57;100.00
9421;BME280;4749;51.398;5.466;2024-03-07T00:05:22;102335.25;;;5.57;100.00
9421;BME280;4749;51.398;5.466;2024-03-07T00:07:53;102344.50;;;5.50;100.00
9421;BME280;4749;51.398;5.466;2024-03-07T00:10:21;102341.13;;;5.53;100.00
9421;BME280;4749;51.398;5.466;2024-03-07T00:12:48;102338.47;;;5.51;100.00
9421;BME280;4749;51.398;5.466;2024-03-07T00:15:15;102346.97;;;5.47;100.00
9421;BME280;4749;51.398;5.466;2024-03-07T00:17:43;102340.78;;;5.45;100.00
9421;BME280;4749;51.398;5.466;2024-03-07T00:20:11;102344.13;;;5.43;100.00
9421;BME280;4749;51.398;5.466;2024-03-07T00:22:43;102341.47;;;5.41;100.00
9421;BME280;4749;51.398;5.466;2024-03-07T00:25:11;102344.91;;;5.40;100.00
9421;BME280;4749;51.398;5.466;2024-03-07T00:27:39;102348.34;;;5.39;100.00
9421;BME280;4749;51.398;5.466;2024-03-07T00:30:07;102340.41;;;5.37;100.00
9421;BME280;4749;51.398;5.466;2024-03-07T00:32:40;102341.22;;;5.36;100.00
9421;BME280;4749;51.398;5.466;2024-03-07T00:35:08;102341.16;;;5.35;100.00
9421;BME280;4749;51.398;5.466;2024-03-07T00:37:38;102335.88;;;5.33;100.00
9421;BME280;4749;51.398;5.466;2024-03-07T00:40:06;102334.84;;;5.30;100.00
9421;BME280;4749;51.398;5.466;2024-03-07T00:42:33;102335.81;;;5.32;100.00
9421;BME280;4749;51.398;5.466;2024-03-07T00:45:01;102337.59;;;5.33;100.00
9421;BME280;4749;51.398;5.466;2024-03-07T00:47:29;102337.66;;;5.34;100.00
9421;BME280;4749;51.398;5.466;2024-03-07T00:49:56;102336.03;;;5.36;100.00
9421;BME280;4749;51.398;5.466;2024-03-07T00:52:23;102331.78;;;5.39;100.00
9421;BME280;4749;51.398;5.466;2024-03-07T00:54:50;102335.06;;;5.34;100.00
9421;BME280;4749;51.398;5.466;2024-03-07T00:57:17;102327.38;;;5.37;100.00
9421;BME280;4749;51.398;5.466;2024-03-07T00:59:44;102325.75;;;5.40;100.00
9421;BME280;4749;51.398;5.466;2024-03-07T01:02:12;102321.19;;;5.35;100.00
9421;BME280;4749;51.398;5.466;2024-03-07T01:04:39;102327.31;;;5.36;100.00
9421;BME280;4749;51.398;5.466;2024-03-07T01:07:06;102320.38;;;5.36;100.00
9421;BME280;4749;51.398;5.466;2024-03-07T01:09:33;102314.25;;;5.36;100.00
9421;BME280;4749;51.398;5.466;2024-03-07T01:12:02;102313.44;;;5.37;100.00
9421;BME280;4749;51.398;5.466;2024-03-07T01:14:33;102317.75;;;5.36;100.00
9421;BME280;4749;51.398;5.466;2024-03-07T01:17:00;102315.91;;;5.34;100.00
9421;BME280;4749;51.398;5.466;2024-03-07T01:19:27;102311.53;;;5.33;100.00
9421;BME280;4749;51.398;5.466;2024-03-07T01:21:54;102320.22;;;5.33;100.00
9421;BME280;4749;51.398;5.466;2024-03-07T01:24:22;102318.53;;;5.34;100.00
9421;BME280;4749;51.398;5.466;2024-03-07T01:26:49;102308.84;;;5.31;100.00
9421;BME280;4749;51.398;5.466;2024-03-07T01:29:17;102307.84;;;5.29;100.00
9421;BME280;4749;51.398;5.466;2024-03-07T01:31:44;102308.69;;;5.28;100.00
9421;BME280;4749;51.398;5.466;2024-03-07T01:34:12;102306.84;;;5.26;100.00
9421;BME280;4749;51.398;5.466;2024-03-07T01:36:39;102304.97;;;5.23;100.00
9421;BME280;4749;51.398;5.466;2024-03-07T01:39:06;102299.69;;;5.22;100.00
9421;BME280;4749;51.398;5.466;2024-03-07T01:41:34;102302.22;;;5.20;100.00
9421;BME280;4749;51.398;5.466;2024-03-07T01:44:02;102302.13;;;5.19;100.00
9421;BME280;4749;51.398;5.466;2024-03-07T01:46:29;102300.22;;;5.15;100.00
9421;BME280;4749;51.398;5.466;2024-03-07T01:48:58;102295.06;;;5.16;100.00
9421;BME280;4749;51.398;5.466;2024-03-07T01:51:26;102293.28;;;5.15;100.00
9421;BME280;4749;51.398;5.466;2024-03-07T01:53:54;102297.69;;;5.16;100.00
9421;BME280;4749;51.398;5.466;2024-03-07T01:56:21;102302.00;;;5.16;100.00
9421;BME280;4749;51.398;5.466;2024-03-07T01:58:49;102290.63;;;5.14;100.00
9421;BME280;4749;51.398;5.466;2024-03-07T02:01:19;102293.13;;;5.12;100.00
9421;BME280;4749;51.398;5.466;2024-03-07T02:03:46;102290.63;;;5.14;100.00
9421;BME280;4749;51.398;5.466;2024-03-07T02:06:13;102287.13;;;5.13;100.00
9421;BME280;4749;51.398;5.466;2024-03-07T02:08:40;102290.38;;;5.09;100.00
9421;BME280;4749;51.398;5.466;2024-03-07T02:11:08;102294.00;;;5.13;100.00
9421;BME280;4749;51.398;5.466;2024-03-07T02:13:37;102288.59;;;5.08;100.00
9421;BME280;4749;51.398;5.466;2024-03-07T02:16:04;102283.38;;;5.08;100.00
9421;BME280;4749;51.398;5.466;2024-03-07T02:18:32;102281.53;;;5.05;100.00
9421;BME280;4749;51.398;5.466;2024-03-07T02:21:00;102271.84;;;5.03;100.00
9421;BME280;4749;51.398;5.466;2024-03-07T02:23:27;102279.66;;;5.03;100.00
9421;BME280;4749;51.398;5.466;2024-03-07T02:25:55;102277.94;;;5.03;100.00
9421;BME280;4749;51.398;5.466;2024-03-07T02:28:22;102269.31;;;5.04;100.00
9421;BME280;4749;51.398;5.466;2024-03-07T02:30:49;102269.31;;;5.04;100.00
9421;BME280;4749;51.398;5.466;2024-03-07T02:33:16;102265.00;;;5.05;100.00
9421;BME280;4749;51.398;5.466;2024-03-07T02:35:43;102264.09;;;5.04;100.00
9421;BME280;4749;51.398;5.466;2024-03-07T02:38:10;102267.50;;;5.03;100.00
9421;BME280;4749;51.398;5.466;2024-03-07T02:40:38;102269.09;;;5.00;100.00
9421;BME280;4749;51.398;5.466;2024-03-07T02:43:05;102269.97;;;5.00;100.00
9421;BME280;4749;51.398;5.466;2024-03-07T02:45:32;102260.31;;;4.98;100.00
9421;BME280;4749;51.398;5.466;2024-03-07T02:47:59;102267.38;;;5.00;100.00
9421;BME280;4749;51.398;5.466;2024-03-07T02:50:26;102270.88;;;5.01;100.00
9421;BME280;4749;51.398;5.466;2024-03-07T02:52:54;102269.09;;;5.00;100.00
9421;BME280;4749;51.398;5.466;2024-03-07T02:55:21;102262.09;;;4.99;100.00
9421;BME280;4749;51.398;5.466;2024-03-07T02:57:48;102263.88;;;5.00;100.00
9421;BME280;4749;51.398;5.466;2024-03-07T03:00:15;102262.03;;;4.97;100.00
9421;BME280;4749;51.398;5.466;2024-03-07T03:02:54;102263.75;;;4.97;100.00
9421;BME280;4749;51.398;5.466;2024-03-07T03:05:22;102262.84;;;4.96;100.00
9421;BME280;4749;51.398;5.466;2024-03-07T03:07:49;102258.38;;;4.94;100.00
9421;BME280;4749;51.398;5.466;2024-03-07T03:10:22;102258.38;;;4.94;100.00
9421;BME280;4749;51.398;5.466;2024-03-07T03:12:57;102252.31;;;4.95;100.00
9421;BME280;4749;51.398;5.466;2024-03-07T03:15:28;102255.75;;;4.94;100.00
9421;BME280;4749;51.398;5.466;2024-03-07T03:17:57;102255.75;;;4.94;100.00
9421;BME280;4749;51.398;5.466;2024-03-07T03:20:27;102250.47;;;4.92;100.00
9421;BME280;4749;51.398;5.466;2024-03-07T03:23:06;102260.00;;;4.92;100.00
9421;BME280;4749;51.398;5.466;2024-03-07T03:25:47;102252.06;;;4.89;100.00
9421;BME280;4749;51.398;5.466;2024-03-07T03:28:18;102255.56;;;4.89;100.00
9421;BME280;4749;51.398;5.466;2024-03-07T03:30:49;102246.69;;;4.86;100.00
9421;BME280;4749;51.398;5.466;2024-03-07T03:33:19;102241.47;;;4.86;100.00
9421;BME280;4749;51.398;5.466;2024-03-07T03:35:48;102244.88;;;4.85;100.00
9421;BME280;4749;51.398;5.466;2024-03-07T03:38:15;102240.50;;;4.84;100.00
9421;BME280;4749;51.398;5.466;2024-03-07T03:40:43;102241.31;;;4.83;100.00
9421;BME280;4749;51.398;5.466;2024-03-07T03:43:10;102236.03;;;4.81;100.00
9421;BME280;4749;51.398;5.466;2024-03-07T03:45:37;102241.19;;;4.79;100.00
9421;BME280;4749;51.398;5.466;2024-03-07T03:48:04;102235.81;;;4.76;100.00
9421;BME280;4749;51.398;5.466;2024-03-07T03:50:32;102240.13;;;4.76;100.00
9421;BME280;4749;51.398;5.466;2024-03-07T03:52:59;102245.19;;;4.73;100.00
9421;BME280;4749;51.398;5.466;2024-03-07T03:55:28;102238.28;;;4.73;100.00
9421;BME280;4749;51.398;5.466;2024-03-07T03:57:56;102244.97;;;4.68;100.00
9421;BME280;4749;51.398;5.466;2024-03-07T04:00:23;102243.13;;;4.66;100.00
9421;BME280;4749;51.398;5.466;2024-03-07T04:02:50;102244.97;;;4.68;100.00
9421;BME280;4749;51.398;5.466;2024-03-07T04:05:19;102238.66;;;4.63;100.00
9421;BME280;4749;51.398;5.466;2024-03-07T04:07:47;102234.16;;;4.61;100.00
9421;BME280;4749;51.398;5.466;2024-03-07T04:10:16;102225.31;;;4.57;100.00
9421;BME280;4749;51.398;5.466;2024-03-07T04:12:45;102234.84;;;4.57;100.00
9421;BME280;4749;51.398;5.466;2024-03-07T04:15:14;102236.50;;;4.55;100.00
9421;BME280;4749;51.398;5.466;2024-03-07T04:17:45;102226.78;;;4.52;100.00
9421;BME280;4749;51.398;5.466;2024-03-07T04:20:15;102235.44;;;4.51;100.00
9421;BME280;4749;51.398;5.466;2024-03-07T04:22:45;102226.22;;;4.58;100.00
9421;BME280;4749;51.398;5.466;2024-03-07T04:25:12;102232.06;;;4.53;100.00
9421;BME280;4749;51.398;5.466;2024-03-07T04:27:40;102237.16;;;4.50;100.00
9421;BME280;4749;51.398;5.466;2024-03-07T04:30:08;102237.28;;;4.53;100.00
9421;BME280;4749;51.398;5.466;2024-03-07T04:32:39;102241.84;;;4.58;100.00
9421;BME280;4749;51.398;5.466;2024-03-07T04:35:07;102235.59;;;4.54;100.00
9421;BME280;4749;51.398;5.466;2024-03-07T04:37:35;102243.50;;;4.56;100.00
9421;BME280;4749;51.398;5.466;2024-03-07T04:40:08;102242.34;;;4.50;100.00
9421;BME280;4749;51.398;5.466;2024-03-07T04:42:49;102236.13;;;4.47;100.00
9421;BME280;4749;51.398;5.466;2024-03-07T04:45:18;102237.97;;;4.49;100.00
9421;BME280;4749;51.398;5.466;2024-03-07T04:47:46;102233.41;;;4.45;100.00
9421;BME280;4749;51.398;5.466;2024-03-07T04:50:15;102228.19;;;4.45;100.00
9421;BME280;4749;51.398;5.466;2024-03-07T04:52:46;102231.16;;;4.35;100.00
9421;BME280;4749;51.398;5.466;2024-03-07T04:55:15;102227.09;;;4.40;100.00
9421;BME280;4749;51.398;5.466;2024-03-07T04:57:42;102227.91;;;4.39;100.00
9421;BME280;4749;51.398;5.466;2024-03-07T05:00:11;102227.59;;;4.33;100.00
9421;BME280;4749;51.398;5.466;2024-03-07T05:02:48;102229.31;;;4.33;100.00
9421;BME280;4749;51.398;5.466;2024-03-07T05:05:19;102222.25;;;4.30;100.00
9421;BME280;4749;51.398;5.466;2024-03-07T05:07:51;102229.00;;;4.27;100.00
9421;BME280;4749;51.398;5.466;2024-03-07T05:10:19;102226.47;;;4.28;100.00
9421;BME280;4749;51.398;5.466;2024-03-07T05:12:46;102221.19;;;4.27;100.00
9421;BME280;4749;51.398;5.466;2024-03-07T05:15:13;102233.25;;;4.24;100.00
9421;BME280;4749;51.398;5.466;2024-03-07T05:17:40;102221.94;;;4.24;100.00
9421;BME280;4749;51.398;5.466;2024-03-07T05:20:11;102219.09;;;4.19;100.00
9421;BME280;4749;51.398;5.466;2024-03-07T05:22:40;102219.97;;;4.20;100.00
9421;BME280;4749;51.398;5.466;2024-03-07T05:25:08;102221.78;;;4.21;100.00
9421;BME280;4749;51.398;5.466;2024-03-07T05:27:36;102219.91;;;4.18;100.00
9421;BME280;4749;51.398;5.466;2024-03-07T05:30:04;102215.47;;;4.16;100.00
9421;BME280;4749;51.398;5.466;2024-03-07T05:32:37;102217.03;;;4.12;100.00
9421;BME280;4749;51.398;5.466;2024-03-07T05:35:06;102219.53;;;4.11;100.00
9421;BME280;4749;51.398;5.466;2024-03-07T05:37:33;102225.53;;;4.10;100.00
9421;BME280;4749;51.398;5.466;2024-03-07T05:40:00;102221.03;;;4.06;100.00
9421;BME280;4749;51.398;5.466;2024-03-07T05:42:30;102221.84;;;4.05;100.00
9421;BME280;4749;51.398;5.466;2024-03-07T05:44:59;102220.13;;;4.05;100.00
9421;BME280;4749;51.398;5.466;2024-03-07T05:47:26;102222.72;;;4.05;100.00
9421;BME280;4749;51.398;5.466;2024-03-07T05:49:53;102212.31;;;4.05;100.00
9421;BME280;4749;51.398;5.466;2024-03-07T05:52:20;102220.94;;;4.04;100.00
9421;BME280;4749;51.398;5.466;2024-03-07T05:54:47;102215.63;;;4.03;100.00
9421;BME280;4749;51.398;5.466;2024-03-07T05:57:15;102219.13;;;4.03;100.00
9421;BME280;4749;51.398;5.466;2024-03-07T05:59:42;102220.94;;;4.04;100.00
9421;BME280;4749;51.398;5.466;2024-03-07T06:02:09;102223.69;;;4.07;100.00
9421;BME280;4749;51.398;5.466;2024-03-07T06:04:39;102219.38;;;4.08;100.00
9421;BME280;4749;51.398;5.466;2024-03-07T06:07:06;102221.09;;;4.07;100.00
9421;BME280;4749;51.398;5.466;2024-03-07T06:09:33;102219.44;;;4.09;100.00
9421;BME280;4749;51.398;5.466;2024-03-07T06:12:00;102216.91;;;4.11;100.00
9421;BME280;4749;51.398;5.466;2024-03-07T06:14:42;102221.22;;;4.10;100.00
9421;BME280;4749;51.398;5.466;2024-03-07T06:17:09;102223.00;;;4.11;100.00
9421;BME280;4749;51.398;5.466;2024-03-07T06:19:37;102222.31;;;4.14;100.00
9421;BME280;4749;51.398;5.466;2024-03-07T06:22:04;102221.56;;;4.16;100.00
9421;BME280;4749;51.398;5.466;2024-03-07T06:24:35;102232.22;;;4.21;100.00
9421;BME280;4749;51.398;5.466;2024-03-07T06:27:04;102224.47;;;4.22;100.00
9421;BME280;4749;51.398;5.466;2024-03-07T06:29:36;102230.19;;;4.15;100.00
9421;BME280;4749;51.398;5.466;2024-03-07T06:32:03;102227.66;;;4.17;100.00
9421;BME280;4749;51.398;5.466;2024-03-07T06:34:30;102225.28;;;4.21;100.00
9421;BME280;4749;51.398;5.466;2024-03-07T06:36:58;102225.56;;;4.28;100.00
9421;BME280;4749;51.398;5.466;2024-03-07T06:39:25;102223.16;;;4.31;100.00
9421;BME280;4749;51.398;5.466;2024-03-07T06:41:52;102223.28;;;4.34;100.00
9421;BME280;4749;51.398;5.466;2024-03-07T06:44:19;102217.44;;;4.38;100.00
9421;BME280;4749;51.398;5.466;2024-03-07T06:46:50;102218.78;;;4.47;100.00
9421;BME280;4749;51.398;5.466;2024-03-07T06:49:18;102213.06;;;4.55;100.00
9421;BME280;4749;51.398;5.466;2024-03-07T06:51:45;102215.78;;;4.58;100.00
9421;BME280;4749;51.398;5.466;2024-03-07T06:54:12;102222.78;;;4.59;100.00
9421;BME280;4749;51.398;5.466;2024-03-07T06:56:39;102220.50;;;4.65;100.00
9421;BME280;4749;51.398;5.466;2024-03-07T06:59:10;102215.34;;;4.66;100.00
9421;BME280;4749;51.398;5.466;2024-03-07T07:01:37;102214.53;;;4.67;100.00
9421;BME280;4749;51.398;5.466;2024-03-07T07:04:04;102214.66;;;4.70;100.00
9421;BME280;4749;51.398;5.466;2024-03-07T07:06:35;102223.59;;;4.75;100.00
9421;BME280;4749;51.398;5.466;2024-03-07T07:09:02;102209.09;;;4.80;100.00
9421;BME280;4749;51.398;5.466;2024-03-07T07:11:30;102208.41;;;4.85;100.00
9421;BME280;4749;51.398;5.466;2024-03-07T07:14:02;102204.25;;;4.88;100.00
9421;BME280;4749;51.398;5.466;2024-03-07T07:16:31;102206.22;;;4.94;100.00
9421;BME280;4749;51.398;5.466;2024-03-07T07:19:02;102207.28;;;4.97;100.00
9421;BME280;4749;51.398;5.466;2024-03-07T07:21:29;102215.38;;;5.03;100.00
9421;BME280;4749;51.398;5.466;2024-03-07T07:23:56;102206.81;;;5.06;100.00
9421;BME280;4749;51.398;5.466;2024-03-07T07:26:24;102204.47;;;5.12;100.00
9421;BME280;4749;51.398;5.466;2024-03-07T07:28:53;102215.19;;;5.18;100.00
9421;BME280;4749;51.398;5.466;2024-03-07T07:31:21;102203.22;;;5.22;100.00
9421;BME280;4749;51.398;5.466;2024-03-07T07:33:53;102208.69;;;5.28;100.00
9421;BME280;4749;51.398;5.466;2024-03-07T07:36:20;102206.25;;;5.31;100.00
9421;BME280;4749;51.398;5.466;2024-03-07T07:38:47;102197.72;;;5.35;100.00
9421;BME280;4749;51.398;5.466;2024-03-07T07:41:15;102197.19;;;5.42;100.00
9421;BME280;4749;51.398;5.466;2024-03-07T07:43:42;102196.63;;;5.49;100.00
9421;BME280;4749;51.398;5.466;2024-03-07T07:46:10;102195.94;;;5.53;100.00
9421;BME280;4749;51.398;5.466;2024-03-07T07:48:37;102197.03;;;5.58;100.00
9421;BME280;4749;51.398;5.466;2024-03-07T07:51:06;102194.78;;;5.66;100.00
9421;BME280;4749;51.398;5.466;2024-03-07T07:53:34;102207.28;;;5.73;100.00
9421;BME280;4749;51.398;5.466;2024-03-07T07:56:02;102208.41;;;5.80;100.00
9421;BME280;4749;51.398;5.466;2024-03-07T07:58:29;102202.63;;;5.87;100.00
9421;BME280;4749;51.398;5.466;2024-03-07T08:00:56;102196.88;;;5.94;100.00
9421;BME280;4749;51.398;5.466;2024-03-07T08:03:24;102201.56;;;6.01;100.00
9421;BME280;4749;51.398;5.466;2024-03-07T08:05:51;102197.50;;;6.08;100.00
9421;BME280;4749;51.398;5.466;2024-03-07T08:08:18;102193.44;;;6.14;100.00
9421;BME280;4749;51.398;5.466;2024-03-07T08:10:47;102194.50;;;6.19;100.00
9421;BME280;4749;51.398;5.466;2024-03-07T08:13:15;102198.31;;;6.28;100.00
9421;BME280;4749;51.398;5.466;2024-03-07T08:15:43;102184.63;;;6.33;100.00
9421;BME280;4749;51.398;5.466;2024-03-07T08:18:10;102191.94;;;6.42;100.00
9421;BME280;4749;51.398;5.466;2024-03-07T08:20:39;102189.66;;;6.49;100.00
9421;BME280;4749;51.398;5.466;2024-03-07T08:23:08;102192.50;;;6.56;100.00
9421;BME280;4749;51.398;5.466;2024-03-07T08:25:37;102190.13;;;6.62;100.00
9421;BME280;4749;51.398;5.466;2024-03-07T08:28:07;102183.44;;;6.68;100.00
9421;BME280;4749;51.398;5.466;2024-03-07T08:30:34;102181.97;;;6.75;100.00
9421;BME280;4749;51.398;5.466;2024-03-07T08:33:02;102177.78;;;6.80;100.00
9421;BME280;4749;51.398;5.466;2024-03-07T08:35:32;102183.38;;;6.89;100.00
9421;BME280;4749;51.398;5.466;2024-03-07T08:38:00;102183.75;;;6.98;100.00
9421;BME280;4749;51.398;5.466;2024-03-07T08:40:29;102184.84;;;7.05;100.00
9421;BME280;4749;51.398;5.466;2024-03-07T08:43:01;102186.94;;;7.14;100.00
9421;BME280;4749;51.398;5.466;2024-03-07T08:45:29;102178.44;;;7.19;100.00
9421;BME280;4749;51.398;5.466;2024-03-07T08:48:02;102181.34;;;7.27;100.00
9421;BME280;4749;51.398;5.466;2024-03-07T08:50:32;102175.47;;;7.32;100.00
9421;BME280;4749;51.398;5.466;2024-03-07T08:53:01;102177.44;;;7.40;100.00
9421;BME280;4749;51.398;5.466;2024-03-07T08:55:29;102180.28;;;7.46;100.00
9421;BME280;4749;51.398;5.466;2024-03-07T08:57:56;102163.00;;;7.49;100.00
9421;BME280;4749;51.398;5.466;2024-03-07T09:00:23;102170.28;;;7.58;100.00
9421;BME280;4749;51.398;5.466;2024-03-07T09:03:00;102165.31;;;7.66;100.00
9421;BME280;4749;51.398;5.466;2024-03-07T09:05:31;102162.91;;;7.72;100.00
9421;BME280;4749;51.398;5.466;2024-03-07T09:08:01;102158.78;;;7.78;100.00
9421;BME280;4749;51.398;5.466;2024-03-07T09:10:30;102139.78;;;7.84;100.00
9421;BME280;4749;51.398;5.466;2024-03-07T09:12:58;102156.66;;;7.92;100.00
9421;BME280;4749;51.398;5.466;2024-03-07T09:15:26;102151.59;;;7.98;100.00
9421;BME280;4749;51.398;5.466;2024-03-07T09:17:54;102145.78;;;8.07;100.00
9421;BME280;4749;51.398;5.466;2024-03-07T09:20:21;102154.78;;;8.15;100.00
9421;BME280;4749;51.398;5.466;2024-03-07T09:22:51;102155.03;;;8.23;100.00
9421;BME280;4749;51.398;5.466;2024-03-07T09:25:21;102143.00;;;8.28;100.00
9421;BME280;4749;51.398;5.466;2024-03-07T09:27:48;102153.69;;;8.34;100.00
9421;BME280;4749;51.398;5.466;2024-03-07T09:30:16;102135.47;;;8.37;100.00
9421;BME280;4749;51.398;5.466;2024-03-07T09:32:46;102155.69;;;8.41;100.00
9421;BME280;4749;51.398;5.466;2024-03-07T09:35:14;102143.63;;;8.46;100.00
9421;BME280;4749;51.398;5.466;2024-03-07T09:37:43;102151.69;;;8.52;100.00
9421;BME280;4749;51.398;5.466;2024-03-07T09:40:11;102148.38;;;8.58;100.00
9421;BME280;4749;51.398;5.466;2024-03-07T09:42:49;102144.22;;;8.66;100.00
9421;BME280;4749;51.398;5.466;2024-03-07T09:45:20;102146.28;;;8.74;100.00
9421;BME280;4749;51.398;5.466;2024-03-07T09:47:51;102145.59;;;8.82;100.00
9421;BME280;4749;51.398;5.466;2024-03-07T09:50:21;102148.41;;;8.88;100.00
9421;BME280;4749;51.398;5.466;2024-03-07T09:52:52;102138.00;;;8.91;100.00
9421;BME280;4749;51.398;5.466;2024-03-07T09:55:22;102144.25;;;8.94;100.00
9421;BME280;4749;51.398;5.466;2024-03-07T09:57:54;102144.44;;;9.00;100.00
9421;BME280;4749;51.398;5.466;2024-03-07T10:00:24;102129.66;;;9.04;100.00
9421;BME280;4749;51.398;5.466;2024-03-07T10:03:08;102144.75;;;9.11;100.00
9421;BME280;4749;51.398;5.466;2024-03-07T10:05:36;102139.50;;;9.11;100.00
9421;BME280;4749;51.398;5.466;2024-03-07T10:08:05;102143.91;;;9.12;100.00
9421;BME280;4749;51.398;5.466;2024-03-07T10:10:34;102133.56;;;9.17;100.00
9421;BME280;4749;51.398;5.466;2024-03-07T10:13:02;102139.81;;;9.22;100.00
9421;BME280;4749;51.398;5.466;2024-03-07T10:15:33;102138.16;;;9.25;100.00
9421;BME280;4749;51.398;5.466;2024-03-07T10:18:01;102141.50;;;9.20;100.00
9421;BME280;4749;51.398;5.466;2024-03-07T10:20:29;102138.03;;;9.21;100.00
9421;BME280;4749;51.398;5.466;2024-03-07T10:22:57;102128.63;;;9.29;100.00
9421;BME280;4749;51.398;5.466;2024-03-07T10:25:25;102132.38;;;9.37;100.00
9421;BME280;4749;51.398;5.466;2024-03-07T10:27:56;102136.13;;;9.47;100.00
9421;BME280;4749;51.398;5.466;2024-03-07T10:30:26;102122.28;;;9.52;100.00
9421;BME280;4749;51.398;5.466;2024-03-07T10:32:59;102126.81;;;9.58;100.00
9421;BME280;4749;51.398;5.466;2024-03-07T10:35:29;102121.56;;;9.58;100.00
9421;BME280;4749;51.398;5.466;2024-03-07T10:37:59;102120.59;;;9.54;100.00
9421;BME280;4749;51.398;5.466;2024-03-07T10:40:35;102125.84;;;9.54;100.00
9421;BME280;4749;51.398;5.466;2024-03-07T10:43:10;102122.19;;;9.49;100.00
9421;BME280;4749;51.398;5.466;2024-03-07T10:45:45;102118.19;;;9.62;100.00
9421;BME280;4749;51.398;5.466;2024-03-07T10:48:20;102116.06;;;9.82;100.00
9421;BME280;4749;51.398;5.466;2024-03-07T10:54:13;102120.84;;;10.31;100.00
9421;BME280;4749;51.398;5.466;2024-03-07T10:57:05;102111.56;;;10.47;100.00
9421;BME280;4749;51.398;5.466;2024-03-07T10:59:38;102110.16;;;10.61;100.00
9421;BME280;4749;51.398;5.466;2024-03-07T11:02:31;102110.25;;;10.66;100.00
9421;BME280;4749;51.398;5.466;2024-03-07T11:05:01;102106.03;;;10.73;100.00
9421;BME280;4749;51.398;5.466;2024-03-07T11:07:29;102109.47;;;10.70;100.00
9421;BME280;4749;51.398;5.466;2024-03-07T11:09:58;102110.59;;;10.81;100.00
9421;BME280;4749;51.398;5.466;2024-03-07T11:12:28;102108.28;;;10.96;100.00
9421;BME280;4749;51.398;5.466;2024-03-07T11:14:57;102107.69;;;11.10;100.00
9421;BME280;4749;51.398;5.466;2024-03-07T11:17:25;102108.16;;;11.33;100.00
9421;BME280;4749;51.398;5.466;2024-03-07T11:19:52;102101.16;;;11.35;100.00
9421;BME280;4749;51.398;5.466;2024-03-07T11:22:32;102099.66;;;11.47;100.00
9421;BME280;4749;51.398;5.466;2024-03-07T11:25:05;102098.72;;;11.44;100.00
9421;BME280;4749;51.398;5.466;2024-03-07T11:27:38;102093.50;;;11.45;100.00
9421;BME280;4749;51.398;5.466;2024-03-07T11:30:08;102095.31;;;11.49;100.00
9421;BME280;4749;51.398;5.466;2024-03-07T11:32:37;102085.50;;;11.42;100.00
9421;BME280;4749;51.398;5.466;2024-03-07T11:35:05;102087.25;;;11.42;100.00
9421;BME280;4749;51.398;5.466;2024-03-07T11:37:44;102088.13;;;11.42;100.00
9421;BME280;4749;51.398;5.466;2024-03-07T11:42:54;102078.47;;;11.41;100.00
9421;BME280;4749;51.398;5.466;2024-03-07T11:45:26;102076.09;;;11.55;100.00
9421;BME280;4749;51.398;5.466;2024-03-07T11:47:58;102069.38;;;11.72;100.00
9421;BME280;4749;51.398;5.466;2024-03-07T11:50:40;102061.53;;;11.75;100.00
9421;BME280;4749;51.398;5.466;2024-03-07T11:53:09;102065.88;;;11.72;100.00
9421;BME280;4749;51.398;5.466;2024-03-07T11:55:39;102069.25;;;11.65;100.00
9421;BME280;4749;51.398;5.466;2024-03-07T11:58:17;102060.47;;;11.66;100.00
9421;BME280;4749;51.398;5.466;2024-03-07T12:00:45;102055.38;;;11.76;100.00
9421;BME280;4749;51.398;5.466;2024-03-07T12:03:14;102054.88;;;11.94;100.00
9421;BME280;4749;51.398;5.466;2024-03-07T12:05:45;102042.63;;;11.98;100.00
9421;BME280;4749;51.398;5.466;2024-03-07T12:08:14;102048.66;;;11.92;100.00
9421;BME280;4749;51.398;5.466;2024-03-07T12:10:43;102037.38;;;11.99;100.00
9421;BME280;4749;51.398;5.466;2024-03-07T12:13:15;102039.63;;;12.34;100.00
9421;BME280;4749;51.398;5.466;2024-03-07T12:15:43;102028.66;;;12.67;100.00
9421;BME280;4749;51.398;5.466;2024-03-07T12:18:11;102036.75;;;12.79;100.00
9421;BME280;4749;51.398;5.466;2024-03-07T12:20:45;102028.09;;;12.91;100.00
9421;BME280;4749;51.398;5.466;2024-03-07T12:23:17;102019.38;;;12.96;100.00
9421;BME280;4749;51.398;5.466;2024-03-07T12:25:47;102011.56;;;13.10;100.00
9421;BME280;4749;51.398;5.466;2024-03-07T12:28:14;102019.75;;;13.29;100.00
9421;BME280;4749;51.398;5.466;2024-03-07T12:30:54;102013.72;;;13.43;100.00
9421;BME280;4749;51.398;5.466;2024-03-07T12:33:22;102007.69;;;13.61;100.00
9421;BME280;4749;51.398;5.466;2024-03-07T12:35:54;102000.84;;;13.82;100.00
9421;BME280;4749;51.398;5.466;2024-03-07T12:38:34;101992.03;;;13.86;100.00
9421;BME280;4749;51.398;5.466;2024-03-07T12:41:05;102000.72;;;13.68;100.00
9421;BME280;4749;51.398;5.466;2024-03-07T12:43:34;101981.94;;;13.36;100.00
9421;BME280;4749;51.398;5.466;2024-03-07T12:46:05;101998.34;;;13.06;98.92
9421;BME280;4749;51.398;5.466;2024-03-07T12:48:32;101991.88;;;12.79;95.38
9421;BME280;4749;51.398;5.466;2024-03-07T12:51:00;101981.97;;;12.60;99.65
9421;BME280;4749;51.398;5.466;2024-03-07T12:53:28;101986.25;;;12.52;100.00
9421;BME280;4749;51.398;5.466;2024-03-07T12:55:57;101988.09;;;12.59;100.00
9421;BME280;4749;51.398;5.466;2024-03-07T12:58:24;101979.28;;;12.55;97.98
9421;BME280;4749;51.398;5.466;2024-03-07T13:00:54;101967.09;;;12.66;99.44
9421;BME280;4749;51.398;5.466;2024-03-07T13:03:24;101973.38;;;12.76;98.02
9421;BME280;4749;51.398;5.466;2024-03-07T13:05:58;101967.47;;;12.99;98.73
9421;BME280;4749;51.398;5.466;2024-03-07T13:08:30;101958.84;;;13.18;100.00
9421;BME280;4749;51.398;5.466;2024-03-07T13:10:58;101965.19;;;13.32;99.00
9421;BME280;4749;51.398;5.466;2024-03-07T13:13:27;101966.28;;;13.56;97.58
9421;BME280;4749;51.398;5.466;2024-03-07T13:15:54;101964.59;;;13.64;96.06
9421;BME280;4749;51.398;5.466;2024-03-07T13:18:23;101969.91;;;13.70;94.23
9421;BME280;4749;51.398;5.466;2024-03-07T13:20:51;101956.69;;;13.68;93.24
9421;BME280;4749;51.398;5.466;2024-03-07T13:23:19;101954.06;;;13.71;94.33
9421;BME280;4749;51.398;5.466;2024-03-07T13:25:47;101952.31;;;13.72;93.74